Time;durP1;ratioP1;P1;durP2;ratioP2;P2;SDS_P1;SDS_P2;PMS_P1;PMS_P2;Temp;Humidity;BMP_temperature;BMP_pressure;BME280_temperature;BME280_humidity;BME280_pressure;Samples;Min_cycle;Max_cycle;Signal;HPM_P1;HPM_P2
2021/06/20 00:00:18;;;;;;;15.90;9.55;;;20.80;86.60;;;;;;5052448;28;20012;-79
2021/06/20 00:02:45;;;;;;;17.70;10.45;;;20.80;86.60;;;;;;5053442;28;20063;-78
2021/06/20 00:05:15;;;;;;;16.95;9.77;;;20.80;86.70;;;;;;5052294;28;20051;-79
2021/06/20 00:07:43;;;;;;;17.15;9.38;;;20.80;86.90;;;;;;5051507;28;20522;-78
2021/06/20 00:10:10;;;;;;;17.27;10.38;;;20.90;87.10;;;;;;5053289;28;20025;-79
2021/06/20 00:12:37;;;;;;;15.82;9.57;;;20.90;87.20;;;;;;5052282;28;20075;-79
2021/06/20 00:15:07;;;;;;;16.65;10.30;;;20.90;87.20;;;;;;5035143;28;20020;-78
2021/06/20 00:17:33;;;;;;;16.58;9.88;;;20.90;87.40;;;;;;5052983;28;20476;-81
2021/06/20 00:19:59;;;;;;;18.00;10.48;;;21.00;87.40;;;;;;5052055;28;20029;-79
2021/06/20 00:22:24;;;;;;;16.63;10.10;;;21.00;87.50;;;;;;5053324;28;20048;-80
2021/06/20 00:24:50;;;;;;;16.55;10.38;;;21.00;87.50;;;;;;5053049;28;20032;-78
2021/06/20 00:27:16;;;;;;;17.08;10.05;;;21.00;87.60;;;;;;5051668;28;20156;-79
2021/06/20 00:29:42;;;;;;;18.35;10.13;;;21.00;87.70;;;;;;5051269;28;20106;-78
2021/06/20 00:32:07;;;;;;;15.40;9.52;;;21.00;87.80;;;;;;5051654;28;20052;-78
2021/06/20 00:34:33;;;;;;;17.88;11.13;;;21.00;87.90;;;;;;5051696;28;20048;-78
2021/06/20 00:36:59;;;;;;;15.70;9.50;;;21.00;88.10;;;;;;5051349;28;20029;-78
2021/06/20 00:39:24;;;;;;;17.77;11.05;;;21.00;88.30;;;;;;5051638;28;20334;-78
2021/06/20 00:41:50;;;;;;;15.38;9.07;;;21.00;88.40;;;;;;5052225;28;20025;-78
2021/06/20 00:44:16;;;;;;;18.42;10.95;;;21.00;88.60;;;;;;5052982;28;20472;-79
2021/06/20 00:46:41;;;;;;;15.98;10.20;;;21.00;88.70;;;;;;5050900;28;20024;-80
2021/06/20 00:49:07;;;;;;;16.63;9.82;;;21.00;88.80;;;;;;5052558;28;20457;-79
2021/06/20 00:51:33;;;;;;;15.38;10.45;;;21.00;88.90;;;;;;5051267;28;20024;-78
2021/06/20 00:53:59;;;;;;;17.52;10.68;;;21.00;89.00;;;;;;5051592;28;20041;-78
2021/06/20 00:56:25;;;;;;;17.70;10.57;;;21.10;89.20;;;;;;5052512;28;20024;-78
2021/06/20 00:59:01;;;;;;;20.48;10.95;;;21.10;89.10;;;;;;5051862;28;20019;-80
2021/06/20 01:01:31;;;;;;;16.38;9.63;;;21.10;89.10;;;;;;5051244;28;20035;-80
2021/06/20 01:03:57;;;;;;;17.75;9.63;;;21.10;89.30;;;;;;5052036;28;20103;-80
2021/06/20 01:06:23;;;;;;;18.63;10.35;;;21.20;89.30;;;;;;5051199;28;20097;-79
2021/06/20 01:08:49;;;;;;;20.27;10.77;;;21.20;89.30;;;;;;5050884;28;20052;-79
2021/06/20 01:11:15;;;;;;;18.92;10.00;;;21.20;89.10;;;;;;5051190;28;20093;-79
2021/06/20 01:13:45;;;;;;;18.88;11.30;;;21.30;89.20;;;;;;5051800;28;20457;-79
2021/06/20 01:16:11;;;;;;;17.13;10.37;;;21.30;89.50;;;;;;5052891;28;20429;-79
2021/06/20 01:18:37;;;;;;;17.00;10.18;;;21.30;89.40;;;;;;5051768;28;20020;-79
2021/06/20 01:21:05;;;;;;;16.80;9.80;;;21.30;89.60;;;;;;5052451;28;20025;-79
2021/06/20 01:23:31;;;;;;;15.90;9.45;;;21.30;89.70;;;;;;5052142;28;20422;-79
2021/06/20 01:25:57;;;;;;;15.02;8.70;;;21.30;89.70;;;;;;5049769;28;20027;-79
2021/06/20 01:28:31;;;;;;;16.10;8.45;;;21.40;89.90;;;;;;5051833;28;20013;-77
2021/06/20 01:31:01;;;;;;;15.10;9.45;;;21.40;89.90;;;;;;5050195;28;20025;-80
2021/06/20 01:33:27;;;;;;;16.05;9.45;;;21.40;90.00;;;;;;5050897;28;20162;-79
2021/06/20 01:35:54;;;;;;;15.32;8.52;;;21.40;90.00;;;;;;5050037;28;20107;-79
2021/06/20 01:38:21;;;;;;;14.80;8.40;;;21.40;90.00;;;;;;5051756;28;20021;-79
2021/06/20 01:40:46;;;;;;;14.98;8.77;;;21.40;90.10;;;;;;5050127;28;20021;-79
2021/06/20 01:43:13;;;;;;;15.48;9.55;;;21.40;90.10;;;;;;5051713;28;20021;-79
2021/06/20 01:45:39;;;;;;;13.98;7.95;;;21.40;90.10;;;;;;5050484;28;20025;-79
2021/06/20 01:48:07;;;;;;;16.35;8.93;;;21.40;90.10;;;;;;5050704;28;20453;-80
2021/06/20 01:50:34;;;;;;;14.40;8.27;;;21.40;90.20;;;;;;5052132;28;20123;-80
2021/06/20 01:53:01;;;;;;;14.73;9.15;;;21.40;90.20;;;;;;5051166;28;20273;-80
2021/06/20 01:55:27;;;;;;;13.75;8.63;;;21.40;90.30;;;;;;5052096;28;20115;-79
2021/06/20 01:57:52;;;;;;;14.55;8.95;;;21.40;90.30;;;;;;5049973;28;20017;-80
2021/06/20 02:00:18;;;;;;;13.27;7.88;;;21.40;90.30;;;;;;5051528;28;20025;-79
2021/06/20 02:02:44;;;;;;;13.25;8.25;;;21.50;90.30;;;;;;5049988;28;20021;-80
2021/06/20 02:05:11;;;;;;;14.88;8.38;;;21.50;90.40;;;;;;5051687;28;20049;-79
2021/06/20 02:07:38;;;;;;;16.42;9.45;;;21.50;90.40;;;;;;5050365;28;20025;-79
2021/06/20 02:10:07;;;;;;;15.85;9.45;;;21.50;90.40;;;;;;5049892;28;20009;-79
2021/06/20 02:12:32;;;;;;;15.75;10.13;;;21.50;90.50;;;;;;5051612;28;20029;-81
2021/06/20 02:14:58;;;;;;;17.40;10.25;;;21.50;90.40;;;;;;5050774;28;20071;-80
2021/06/20 02:17:27;;;;;;;15.85;9.80;;;21.50;90.40;;;;;;5050540;28;20427;-80
2021/06/20 02:19:56;;;;;;;15.02;8.45;;;21.60;90.50;;;;;;5049678;28;20028;-79
2021/06/20 02:22:22;;;;;;;14.93;9.15;;;21.60;90.50;;;;;;5050205;28;20029;-79
2021/06/20 02:24:48;;;;;;;18.15;9.38;;;21.60;90.50;;;;;;5051134;28;20115;-80
2021/06/20 02:27:15;;;;;;;15.82;9.52;;;21.60;90.50;;;;;;5052010;28;20396;-80
2021/06/20 02:29:42;;;;;;;16.80;10.05;;;21.60;90.50;;;;;;5052060;28;20027;-79
2021/06/20 02:32:09;;;;;;;17.58;8.73;;;21.60;90.60;;;;;;5050389;28;20075;-79
2021/06/20 02:34:36;;;;;;;16.42;9.25;;;21.60;90.60;;;;;;5051235;28;20035;-79
2021/06/20 02:37:03;;;;;;;14.88;9.05;;;21.70;90.60;;;;;;5052446;28;20025;-80
2021/06/20 02:39:29;;;;;;;17.10;8.73;;;21.70;90.50;;;;;;5053890;28;20025;-79
2021/06/20 02:41:54;;;;;;;13.50;8.27;;;21.70;90.50;;;;;;5053213;28;20024;-80
2021/06/20 02:44:20;;;;;;;17.17;8.93;;;21.80;90.50;;;;;;5054984;28;20021;-81
2021/06/20 02:46:46;;;;;;;15.00;8.77;;;21.80;90.50;;;;;;5054306;28;20070;-80
2021/06/20 02:49:12;;;;;;;17.00;9.93;;;21.80;90.50;;;;;;5055233;28;20099;-80
2021/06/20 02:51:40;;;;;;;18.38;10.40;;;21.70;90.50;;;;;;5053574;28;20453;-80
2021/06/20 02:54:06;;;;;;;17.02;9.30;;;21.70;90.50;;;;;;5053921;28;20041;-80
2021/06/20 02:56:32;;;;;;;15.38;9.52;;;21.70;90.60;;;;;;5053522;28;20017;-79
2021/06/20 02:58:57;;;;;;;17.95;10.73;;;21.70;90.60;;;;;;5053131;28;20017;-79
2021/06/20 03:01:23;;;;;;;16.60;9.55;;;21.70;90.60;;;;;;5053416;28;20029;-80
2021/06/20 03:03:49;;;;;;;16.40;9.50;;;21.70;90.60;;;;;;5053858;28;20408;-79
2021/06/20 03:06:15;;;;;;;18.45;10.82;;;21.70;90.60;;;;;;5053275;28;20531;-79
2021/06/20 03:08:41;;;;;;;18.25;10.75;;;21.70;90.60;;;;;;5053319;28;20412;-79
2021/06/20 03:11:06;;;;;;;19.40;10.70;;;21.60;90.60;;;;;;5053616;28;20032;-80
2021/06/20 03:13:32;;;;;;;17.48;11.38;;;21.60;90.60;;;;;;5053254;28;20021;-80
2021/06/20 03:15:58;;;;;;;16.92;10.10;;;21.60;90.60;;;;;;5053848;28;20044;-80
2021/06/20 03:18:23;;;;;;;21.38;11.43;;;21.60;90.60;;;;;;5053115;28;20032;-80
2021/06/20 03:20:49;;;;;;;21.50;11.48;;;21.70;90.60;;;;;;5052546;28;20035;-80
2021/06/20 03:23:15;;;;;;;19.98;11.15;;;21.70;90.60;;;;;;5054465;28;20449;-78
2021/06/20 03:25:41;;;;;;;15.52;8.45;;;21.70;90.90;;;;;;5054413;28;20113;-80
2021/06/20 03:28:08;;;;;;;22.00;11.63;;;21.70;90.60;;;;;;5052259;28;20249;-80
2021/06/20 03:30:34;;;;;;;20.65;11.30;;;21.60;90.60;;;;;;5054116;28;20024;-79
2021/06/20 03:33:00;;;;;;;18.50;10.18;;;21.60;90.60;;;;;;5052184;28;20024;-80
2021/06/20 03:35:26;;;;;;;20.75;12.32;;;21.60;90.70;;;;;;5054212;28;20117;-79
2021/06/20 03:37:52;;;;;;;20.35;11.80;;;21.50;90.70;;;;;;5052156;28;20108;-81
2021/06/20 03:40:17;;;;;;;23.48;13.65;;;21.50;90.70;;;;;;5053827;28;20406;-79
2021/06/20 03:42:43;;;;;;;23.70;12.55;;;21.50;90.80;;;;;;5052820;28;20028;-80
2021/06/20 03:45:10;;;;;;;24.50;13.38;;;21.40;90.80;;;;;;5052416;28;20083;-78
2021/06/20 03:47:37;;;;;;;23.88;14.35;;;21.30;90.80;;;;;;5053638;28;20472;-79
2021/06/20 03:50:04;;;;;;;26.77;14.02;;;21.30;90.90;;;;;;5052091;28;20021;-79
2021/06/20 03:52:30;;;;;;;22.00;13.77;;;21.20;90.90;;;;;;5052516;28;20138;-79
2021/06/20 03:54:57;;;;;;;23.58;12.70;;;21.20;91.00;;;;;;5051842;28;20128;-79
2021/06/20 03:57:23;;;;;;;23.38;13.77;;;21.20;91.00;;;;;;5052474;28;20483;-79
2021/06/20 03:59:49;;;;;;;22.63;13.18;;;21.10;91.00;;;;;;5052490;28;20104;-80
2021/06/20 04:02:15;;;;;;;17.52;10.07;;;21.10;91.10;;;;;;5053934;28;20035;-79
2021/06/20 04:04:42;;;;;;;21.98;12.15;;;20.90;91.10;;;;;;5052230;28;20017;-79
2021/06/20 04:07:11;;;;;;;22.30;11.70;;;20.90;91.10;;;;;;5053444;28;20025;-80
2021/06/20 04:09:41;;;;;;;22.60;13.13;;;20.80;91.00;;;;;;5052249;28;20040;-80
2021/06/20 04:12:10;;;;;;;24.75;14.13;;;20.80;91.00;;;;;;5052909;28;20028;-80
2021/06/20 04:14:37;;;;;;;19.23;11.07;;;20.70;91.10;;;;;;5053481;28;20051;-79
2021/06/20 04:17:03;;;;;;;19.05;11.15;;;20.60;91.10;;;;;;5052861;28;20017;-79
2021/06/20 04:19:29;;;;;;;18.63;10.45;;;20.60;91.10;;;;;;5053172;28;20028;-81
2021/06/20 04:21:55;;;;;;;21.13;10.68;;;20.50;91.10;;;;;;5051249;28;20024;-79
2021/06/20 04:24:20;;;;;;;13.60;7.03;;;20.40;91.10;;;;;;5053163;28;20021;-82
2021/06/20 04:26:46;;;;;;;18.17;8.88;;;20.30;91.10;;;;;;5053052;28;20131;-79
2021/06/20 04:29:11;;;;;;;17.65;9.38;;;20.30;91.10;;;;;;5051354;28;20045;-79
2021/06/20 04:31:37;;;;;;;21.40;11.15;;;20.30;91.10;;;;;;5051709;28;20331;-78
2021/06/20 04:34:03;;;;;;;21.30;10.25;;;20.30;91.10;;;;;;5051210;28;20021;-78
2021/06/20 04:36:31;;;;;;;19.63;10.00;;;20.30;91.00;;;;;;5052256;28;20104;-79
2021/06/20 04:38:58;;;;;;;17.90;9.55;;;20.30;91.00;;;;;;5053001;28;20024;-79
2021/06/20 04:41:24;;;;;;;16.98;9.50;;;20.30;91.00;;;;;;5053300;28;20031;-79
2021/06/20 04:46:29;;;;;;;22.33;11.70;;;20.40;90.90;;;;;;5052931;28;20437;-80
2021/06/20 04:49:09;;;;;;;22.58;9.85;;;20.40;90.90;;;;;;5052665;28;20023;-80
2021/06/20 04:51:40;;;;;;;18.70;9.77;;;20.30;90.90;;;;;;5051513;28;20052;-78
2021/06/20 04:54:11;;;;;;;20.90;9.57;;;20.40;90.90;;;;;;5050781;28;20047;-80
2021/06/20 04:56:37;;;;;;;22.42;11.27;;;20.30;90.80;;;;;;5051623;28;20017;-79
2021/06/20 04:59:04;;;;;;;22.65;12.05;;;20.30;90.80;;;;;;5050357;28;20024;-78
2021/06/20 05:01:29;;;;;;;25.70;13.55;;;20.30;90.80;;;;;;5051513;28;20021;-79
2021/06/20 05:03:56;;;;;;;23.23;12.45;;;20.30;90.80;;;;;;5051010;28;20020;-79
2021/06/20 05:06:22;;;;;;;27.23;13.07;;;20.30;90.90;;;;;;5054174;28;20032;-77
2021/06/20 05:08:48;;;;;;;22.88;12.38;;;20.20;90.90;;;;;;5052763;28;20025;-78
2021/06/20 05:11:14;;;;;;;24.30;12.52;;;20.20;90.90;;;;;;5052001;28;20235;-79
2021/06/20 05:13:40;;;;;;;20.95;11.25;;;20.20;90.90;;;;;;5050920;28;20013;-79
2021/06/20 05:16:06;;;;;;;24.98;12.98;;;20.30;90.90;;;;;;5051544;28;20017;-80
2021/06/20 05:18:32;;;;;;;22.55;11.40;;;20.30;90.90;;;;;;5050963;28;20021;-80
2021/06/20 05:20:59;;;;;;;22.90;12.60;;;20.30;90.80;;;;;;5050244;28;20407;-79
2021/06/20 05:23:24;;;;;;;26.15;12.68;;;20.30;90.80;;;;;;5052233;28;20100;-79
2021/06/20 05:25:51;;;;;;;24.92;12.82;;;20.30;90.80;;;;;;5050892;28;20099;-79
2021/06/20 05:28:16;;;;;;;23.33;11.90;;;20.30;90.80;;;;;;5050196;28;20024;-78
2021/06/20 05:30:45;;;;;;;25.50;13.10;;;20.30;90.80;;;;;;5050826;28;20020;-79
2021/06/20 05:33:15;;;;;;;20.35;10.77;;;20.30;90.80;;;;;;5050125;28;20017;-80
2021/06/20 05:35:42;;;;;;;22.13;12.50;;;20.30;90.80;;;;;;5052377;28;20027;-79
2021/06/20 05:38:07;;;;;;;23.88;11.68;;;20.30;90.80;;;;;;5051566;28;20703;-78
2021/06/20 05:40:34;;;;;;;22.85;11.15;;;20.30;90.80;;;;;;5050673;28;20017;-79
2021/06/20 05:43:00;;;;;;;22.05;12.23;;;20.40;90.80;;;;;;5050140;28;20013;-79
2021/06/20 05:45:26;;;;;;;23.35;11.80;;;20.30;90.70;;;;;;5050697;28;20099;-79
2021/06/20 05:47:51;;;;;;;25.00;13.77;;;20.40;90.80;;;;;;5050626;28;20022;-80
2021/06/20 05:50:20;;;;;;;22.00;11.73;;;20.40;90.70;;;;;;5050991;28;20519;-79
2021/06/20 05:52:45;;;;;;;22.55;12.55;;;20.40;90.70;;;;;;5050347;28;20044;-79
2021/06/20 05:55:11;;;;;;;25.33;12.38;;;20.40;90.70;;;;;;5050057;28;20449;-79
2021/06/20 05:57:37;;;;;;;15.77;9.00;;;20.30;90.70;;;;;;5051964;28;20021;-79
2021/06/20 06:00:07;;;;;;;26.48;13.40;;;20.30;90.70;;;;;;5051166;28;20053;-78
2021/06/20 06:02:34;;;;;;;26.67;12.75;;;20.30;90.80;;;;;;5051789;28;20017;-79
2021/06/20 06:04:59;;;;;;;14.73;8.00;;;20.30;90.90;;;;;;5049946;28;20100;-80
2021/06/20 06:07:25;;;;;;;25.55;12.50;;;20.30;91.00;;;;;;5050519;28;20162;-78
2021/06/20 06:09:50;;;;;;;21.42;11.77;;;20.30;90.70;;;;;;5051733;28;20025;-77
2021/06/20 06:12:21;;;;;;;27.38;14.15;;;20.40;90.70;;;;;;5054709;28;20024;-78
2021/06/20 06:14:47;;;;;;;27.58;13.55;;;20.40;90.60;;;;;;5054559;28;20028;-78
2021/06/20 06:17:13;;;;;;;23.17;10.90;;;20.40;90.70;;;;;;5053794;28;20013;-79
2021/06/20 06:19:38;;;;;;;24.13;12.02;;;20.40;90.60;;;;;;5055502;28;20100;-78
2021/06/20 06:22:04;;;;;;;22.15;11.80;;;20.50;90.60;;;;;;5053711;28;20116;-79
2021/06/20 06:24:29;;;;;;;27.20;12.90;;;20.60;90.50;;;;;;5055605;28;20052;-79
2021/06/20 06:26:55;;;;;;;25.70;12.30;;;20.60;90.40;;;;;;5056132;28;20021;-78
2021/06/20 06:29:21;;;;;;;24.58;11.77;;;20.70;90.40;;;;;;5053748;28;20021;-78
2021/06/20 06:31:46;;;;;;;21.30;11.63;;;20.60;90.40;;;;;;5055352;28;20028;-78
2021/06/20 06:34:12;;;;;;;24.45;12.55;;;20.60;90.30;;;;;;5054839;28;20048;-79
2021/06/20 06:36:38;;;;;;;24.58;11.52;;;20.60;90.40;;;;;;5053945;28;20361;-78
2021/06/20 06:39:04;;;;;;;23.55;12.07;;;20.60;90.40;;;;;;5054572;28;20092;-79
2021/06/20 06:41:33;;;;;;;23.45;12.02;;;20.60;90.40;;;;;;5055259;28;20058;-79
2021/06/20 06:43:59;;;;;;;27.98;12.40;;;20.60;90.30;;;;;;5054058;28;20029;-79
2021/06/20 06:46:24;;;;;;;21.85;12.73;;;20.60;90.30;;;;;;5053078;28;20023;-77
2021/06/20 06:48:50;;;;;;;24.10;12.15;;;20.70;90.20;;;;;;5053818;28;20017;-80
2021/06/20 06:51:16;;;;;;;23.85;11.27;;;20.80;90.00;;;;;;5052895;28;20410;-78
2021/06/20 06:53:41;;;;;;;25.40;11.52;;;20.80;89.80;;;;;;5054547;28;20037;-78
2021/06/20 06:56:07;;;;;;;24.10;12.73;;;20.90;89.70;;;;;;5053982;28;20028;-78
2021/06/20 06:58:33;;;;;;;24.35;11.50;;;20.90;89.40;;;;;;5054828;28;20426;-79
2021/06/20 07:00:58;;;;;;;22.95;11.07;;;20.90;89.50;;;;;;5054194;28;20574;-78
2021/06/20 07:03:24;;;;;;;16.98;9.40;;;20.90;89.40;;;;;;5053610;28;20390;-78
2021/06/20 07:05:49;;;;;;;24.30;12.98;;;21.00;89.10;;;;;;5054104;28;20102;-79
2021/06/20 07:08:15;;;;;;;25.52;12.98;;;21.00;88.70;;;;;;5052655;28;20021;-79
2021/06/20 07:10:41;;;;;;;22.10;12.20;;;21.00;88.60;;;;;;5054081;28;20063;-78
2021/06/20 07:13:07;;;;;;;23.95;13.13;;;21.10;88.70;;;;;;5053874;28;20028;-79
2021/06/20 07:15:32;;;;;;;27.88;13.45;;;21.00;88.40;;;;;;5054321;28;20131;-78
2021/06/20 07:17:59;;;;;;;23.25;12.90;;;21.00;88.30;;;;;;5052991;28;20021;-78
2021/06/20 07:20:25;;;;;;;24.92;12.10;;;20.90;88.40;;;;;;5053692;28;20084;-79
2021/06/20 07:22:51;;;;;;;26.02;12.65;;;20.90;88.50;;;;;;5053645;28;20075;-79
2021/06/20 07:25:20;;;;;;;23.60;11.27;;;20.90;88.50;;;;;;5052417;28;20013;-78
2021/06/20 07:27:47;;;;;;;23.08;12.40;;;20.90;88.30;;;;;;5052650;28;20028;-79
2021/06/20 07:30:16;;;;;;;22.20;11.90;;;20.90;88.20;;;;;;5052272;28;20091;-79
2021/06/20 07:32:50;;;;;;;21.35;11.18;;;21.00;88.20;;;;;;5052460;28;20021;-78
2021/06/20 07:35:16;;;;;;;25.83;12.55;;;21.00;88.10;;;;;;5052537;28;20017;-79
2021/06/20 07:37:42;;;;;;;25.42;13.50;;;20.90;88.00;;;;;;5054300;28;20020;-79
2021/06/20 07:40:10;;;;;;;24.10;12.50;;;20.90;88.30;;;;;;5052097;28;20028;-79
2021/06/20 07:42:36;;;;;;;24.48;12.60;;;20.90;88.20;;;;;;5054220;28;20017;-78
2021/06/20 07:45:04;;;;;;;23.15;12.05;;;20.90;88.20;;;;;;5052414;28;20017;-79
2021/06/20 07:47:29;;;;;;;20.15;10.95;;;21.00;88.10;;;;;;5053262;28;20021;-78
2021/06/20 07:49:55;;;;;;;19.73;11.07;;;21.00;88.00;;;;;;5053876;28;20017;-79
2021/06/20 07:52:21;;;;;;;23.08;11.80;;;21.10;87.70;;;;;;5051674;28;20431;-78
2021/06/20 07:54:49;;;;;;;23.90;12.25;;;21.30;87.40;;;;;;5052239;28;20107;-79
2021/06/20 07:57:20;;;;;;;20.17;10.10;;;21.40;87.00;;;;;;5051570;28;20551;-79
2021/06/20 07:59:48;;;;;;;18.58;9.13;;;21.50;86.50;;;;;;5052252;28;20112;-79
2021/06/20 08:02:14;;;;;;;20.25;9.65;;;21.50;86.30;;;;;;5053048;28;20025;-79
2021/06/20 08:04:41;;;;;;;19.77;10.77;;;21.50;86.10;;;;;;5053052;28;20022;-78
2021/06/20 08:07:07;;;;;;;16.75;8.32;;;21.50;86.00;;;;;;5053820;28;20027;-78
2021/06/20 08:09:33;;;;;;;18.23;9.23;;;21.50;85.90;;;;;;5051790;28;20032;-79
2021/06/20 08:12:00;;;;;;;18.30;9.23;;;21.40;85.70;;;;;;5053348;28;20037;-80
2021/06/20 08:14:26;;;;;;;15.45;8.52;;;21.40;85.70;;;;;;5052002;28;20017;-79
2021/06/20 08:16:52;;;;;;;18.40;8.75;;;21.40;85.80;;;;;;5052108;28;20045;-78
2021/06/20 08:19:19;;;;;;;16.55;7.93;;;21.30;85.80;;;;;;5052704;28;20382;-78
2021/06/20 08:21:45;;;;;;;18.42;8.80;;;21.30;85.80;;;;;;5053117;28;20021;-79
2021/06/20 08:24:11;;;;;;;15.38;8.90;;;21.40;85.70;;;;;;5052866;28;20024;-80
2021/06/20 08:26:38;;;;;;;18.98;8.65;;;21.40;85.50;;;;;;5035107;28;20075;-79
2021/06/20 08:29:04;;;;;;;17.50;8.55;;;21.30;85.30;;;;;;5051725;28;20040;-78
2021/06/20 08:31:31;;;;;;;13.35;7.57;;;21.30;85.10;;;;;;5051067;28;20033;-78
2021/06/20 08:33:57;;;;;;;13.70;7.03;;;21.40;85.10;;;;;;5052176;28;20017;-79
2021/06/20 08:36:22;;;;;;;17.67;9.15;;;21.40;84.90;;;;;;5052301;28;20074;-79
2021/06/20 08:38:48;;;;;;;15.30;8.43;;;21.40;84.80;;;;;;5051639;28;20112;-78
2021/06/20 08:41:16;;;;;;;14.50;7.50;;;21.50;84.70;;;;;;5050794;28;20108;-78
2021/06/20 08:43:43;;;;;;;17.52;7.97;;;21.50;84.60;;;;;;5051745;28;20017;-78
2021/06/20 08:46:10;;;;;;;15.60;9.00;;;21.50;84.40;;;;;;5051422;28;20025;-78
2021/06/20 08:48:36;;;;;;;15.77;7.85;;;21.50;84.40;;;;;;5050987;28;20103;-78
2021/06/20 08:51:04;;;;;;;18.30;8.23;;;21.50;84.40;;;;;;5051123;28;20373;-78
2021/06/20 08:53:30;;;;;;;15.02;7.45;;;21.50;84.30;;;;;;5051941;28;20048;-79
2021/06/20 08:55:55;;;;;;;13.35;7.72;;;21.40;84.20;;;;;;5051277;28;20020;-79
2021/06/20 08:58:27;;;;;;;19.02;8.30;;;21.40;84.20;;;;;;5050694;28;20024;-79
2021/06/20 09:00:55;;;;;;;16.58;8.20;;;21.40;84.20;;;;;;5052419;28;20063;-78
2021/06/20 09:03:21;;;;;;;16.98;7.75;;;21.30;84.40;;;;;;5050873;28;20171;-78
2021/06/20 09:06:04;;;;;;;15.88;7.50;;;21.30;84.40;;;;;;5050937;28;20525;-78
2021/06/20 09:08:30;;;;;;;14.77;7.90;;;21.50;84.40;;;;;;5051865;28;20024;-79
2021/06/20 09:10:58;;;;;;;15.65;6.90;;;21.60;83.90;;;;;;5050812;28;20043;-78
2021/06/20 09:13:32;;;;;;;15.60;7.32;;;21.70;83.30;;;;;;5050290;28;20013;-80
2021/06/20 09:16:01;;;;;;;11.98;7.03;;;21.70;83.00;;;;;;5052253;28;20013;-78
2021/06/20 09:18:27;;;;;;;13.95;7.03;;;21.70;82.90;;;;;;5050271;28;20017;-78
2021/06/20 09:20:52;;;;;;;13.75;7.35;;;21.70;82.90;;;;;;5052359;28;20061;-78
2021/06/20 09:23:18;;;;;;;16.88;7.47;;;21.90;82.60;;;;;;5051480;28;20032;-78
2021/06/20 09:25:52;;;;;;;12.25;5.90;;;22.00;82.20;;;;;;5050507;28;20017;-79
2021/06/20 09:28:18;;;;;;;12.95;6.28;;;22.10;81.90;;;;;;5050215;28;20104;-78
2021/06/20 09:30:52;;;;;;;14.25;7.28;;;22.20;81.50;;;;;;5051743;28;20366;-79
2021/06/20 09:33:22;;;;;;;13.75;7.15;;;22.40;80.90;;;;;;5050161;28;20017;-79
2021/06/20 09:35:58;;;;;;;10.07;6.15;;;22.50;80.60;;;;;;5052015;28;20045;-79
2021/06/20 09:38:37;;;;;;;11.32;5.70;;;22.50;80.30;;;;;;5049771;28;20099;-78
2021/06/20 09:41:05;;;;;;;12.27;5.97;;;22.60;80.20;;;;;;5052212;28;20033;-79
2021/06/20 09:43:36;;;;;;;11.25;6.05;;;22.80;79.70;;;;;;5049996;28;20399;-78
2021/06/20 09:46:02;;;;;;;12.70;6.45;;;22.90;79.40;;;;;;5055432;28;20017;-79
2021/06/20 09:48:36;;;;;;;10.93;6.30;;;23.00;79.00;;;;;;5056551;28;20021;-79
2021/06/20 09:51:20;;;;;;;11.68;6.38;;;23.10;78.60;;;;;;5057275;28;20040;-78
2021/06/20 09:53:48;;;;;;;12.02;6.72;;;23.20;78.60;;;;;;5056724;28;20079;-77
2021/06/20 09:56:29;;;;;;;12.88;6.55;;;23.30;78.40;;;;;;5058467;28;20024;-79
2021/06/20 09:59:02;;;;;;;10.63;5.38;;;23.40;77.80;;;;;;5057055;28;20017;-79
2021/06/20 10:01:30;;;;;;;8.40;4.72;;;23.40;77.60;;;;;;5056502;28;20055;-78
2021/06/20 10:03:56;;;;;;;10.00;4.80;;;23.30;77.30;;;;;;5057261;28;20020;-78
2021/06/20 10:06:22;;;;;;;9.90;5.63;;;23.20;77.60;;;;;;5057745;28;20024;-80
2021/06/20 10:08:48;;;;;;;7.97;4.55;;;23.10;77.70;;;;;;5058132;28;20024;-78
2021/06/20 10:11:15;;;;;;;10.20;5.78;;;23.00;77.70;;;;;;5057021;28;20031;-79
2021/06/20 10:13:42;;;;;;;9.38;5.03;;;23.00;78.40;;;;;;5057664;28;20017;-78
2021/06/20 10:16:32;;;;;;;11.38;5.85;;;22.90;77.80;;;;;;5057106;28;20017;-78
2021/06/20 10:19:06;;;;;;;9.53;5.40;;;23.00;77.60;;;;;;5058513;28;20032;-77
2021/06/20 10:21:43;;;;;;;8.70;5.00;;;23.10;77.30;;;;;;5056770;28;20307;-79
2021/06/20 10:24:18;;;;;;;8.50;4.50;;;23.10;77.00;;;;;;5058959;28;20025;-79
2021/06/20 10:26:55;;;;;;;7.72;3.88;;;23.10;76.80;;;;;;5057002;28;20060;-78
2021/06/20 10:29:24;;;;;;;9.68;4.70;;;23.20;76.80;;;;;;5057684;28;20029;-79
2021/06/20 10:31:51;;;;;;;7.32;4.47;;;23.30;76.30;;;;;;5056783;28;20021;-78
2021/06/20 10:34:29;;;;;;;6.80;3.75;;;23.40;76.00;;;;;;5057872;28;20032;-78
2021/06/20 10:36:58;;;;;;;8.23;4.47;;;23.40;75.60;;;;;;5057010;28;20017;-78
2021/06/20 10:39:25;;;;;;;7.07;3.70;;;23.40;75.40;;;;;;5057581;28;20419;-78
2021/06/20 10:42:11;;;;;;;6.00;3.42;;;23.50;75.40;;;;;;5058405;28;20025;-77
2021/06/20 10:44:55;;;;;;;7.70;3.65;;;23.60;74.90;;;;;;5056207;28;20013;-78
2021/06/20 10:47:32;;;;;;;9.15;3.90;;;23.70;74.60;;;;;;5057513;28;20134;-79
2021/06/20 10:50:02;;;;;;;7.47;4.25;;;23.80;74.40;;;;;;5044369;28;20047;-80
2021/06/20 10:52:27;;;;;;;7.80;4.25;;;23.90;73.90;;;;;;5054307;28;20410;-79
2021/06/20 10:55:08;;;;;;;7.47;4.28;;;23.90;73.10;;;;;;5053548;28;20087;-79
2021/06/20 10:57:45;;;;;;;6.88;3.90;;;24.00;72.60;;;;;;5052784;28;20021;-79
2021/06/20 11:00:12;;;;;;;10.82;4.88;;;24.10;72.30;;;;;;5051829;28;20013;-78
2021/06/20 11:02:38;;;;;;;9.63;4.78;;;24.10;71.70;;;;;;5052782;28;20032;-79
2021/06/20 11:05:05;;;;;;;9.88;4.55;;;24.10;71.60;;;;;;5053138;28;20032;-79
2021/06/20 11:07:31;;;;;;;7.22;4.13;;;24.10;71.70;;;;;;5052798;28;20052;-80
2021/06/20 11:09:57;;;;;;;5.82;3.88;;;24.10;71.80;;;;;;5058519;28;20044;-79
2021/06/20 11:12:23;;;;;;;7.93;3.88;;;24.10;71.80;;;;;;5052764;28;20083;-78
2021/06/20 11:14:49;;;;;;;6.70;4.30;;;24.10;71.70;;;;;;5053752;28;20017;-79
2021/06/20 11:17:16;;;;;;;6.72;3.70;;;24.10;71.40;;;;;;5054841;28;20020;-79
2021/06/20 11:19:42;;;;;;;5.85;3.67;;;24.10;71.40;;;;;;5052210;28;20221;-78
2021/06/20 11:22:09;;;;;;;6.32;3.60;;;24.30;71.20;;;;;;5054593;28;20120;-79
2021/06/20 11:24:40;;;;;;;5.25;3.17;;;24.40;70.40;;;;;;5048534;28;20353;-78
2021/06/20 11:27:20;;;;;;;6.88;3.42;;;24.40;70.10;;;;;;5058760;28;20021;-78
2021/06/20 11:29:48;;;;;;;4.83;3.13;;;24.40;70.10;;;;;;5054271;28;20036;-78
2021/06/20 11:32:16;;;;;;;5.55;3.70;;;24.50;69.90;;;;;;5055717;28;20050;-78
2021/06/20 11:35:04;;;;;;;4.35;2.80;;;24.50;69.60;;;;;;5056665;28;20039;-78
2021/06/20 11:37:33;;;;;;;5.82;3.35;;;24.50;69.40;;;;;;5055660;28;20075;-77
2021/06/20 11:40:11;;;;;;;7.68;3.13;;;24.60;69.20;;;;;;5056510;28;20069;-77
2021/06/20 11:42:39;;;;;;;5.93;3.10;;;24.60;69.00;;;;;;5055268;28;20032;-79
2021/06/20 11:45:20;;;;;;;6.30;3.15;;;24.80;68.90;;;;;;5060412;28;20017;-77
2021/06/20 11:47:49;;;;;;;6.60;2.72;;;24.90;68.20;;;;;;5056293;28;20021;-76
2021/06/20 11:50:20;;;;;;;6.65;3.67;;;25.10;67.60;;;;;;5040606;27;20555;-78
2021/06/20 11:53:07;;;;;;;6.13;3.42;;;25.30;67.20;;;;;;5059553;28;20024;-79
2021/06/20 11:55:38;;;;;;;6.72;3.78;;;25.50;66.80;;;;;;5059822;28;20021;-77
2021/06/20 11:58:04;;;;;;;;;;;25.60;66.40;;;;;;5061829;28;20473;-84
2021/06/20 12:00:31;;;;;;;7.00;4.00;;;25.70;66.40;;;;;;5059331;28;19912;-77
2021/06/20 12:03:05;;;;;;;6.28;4.13;;;25.80;66.30;;;;;;5055222;28;20031;-78
2021/06/20 12:05:48;;;;;;;8.50;4.40;;;25.80;66.20;;;;;;5062436;28;20027;-77
2021/06/20 12:08:14;;;;;;;5.32;3.70;;;25.70;66.20;;;;;;5062131;28;20016;-77
2021/06/20 12:10:45;;;;;;;7.95;4.32;;;25.80;65.90;;;;;;5062572;28;20021;-79
2021/06/20 12:13:12;;;;;;;8.02;3.65;;;25.90;65.60;;;;;;5065930;28;20356;-77
2021/06/20 12:15:40;;;;;;;6.72;4.32;;;25.90;65.00;;;;;;5060515;28;20013;-78
2021/06/20 12:18:11;;;;;;;5.53;3.30;;;25.90;65.70;;;;;;5061915;28;20029;-76
2021/06/20 12:20:42;;;;;;;5.18;3.22;;;25.90;64.80;;;;;;5056850;28;20025;-76
2021/06/20 12:23:20;;;;;;;5.50;3.03;;;25.80;64.80;;;;;;5064060;28;20040;-77
2021/06/20 12:25:47;;;;;;;5.20;3.20;;;25.70;64.70;;;;;;5063324;28;20052;-78
2021/06/20 12:28:15;;;;;;;5.43;2.85;;;25.70;65.00;;;;;;5059760;28;20127;-80
2021/06/20 12:30:45;;;;;;;7.55;3.25;;;25.70;64.50;;;;;;5064845;28;20017;-77
2021/06/20 12:33:16;;;;;;;7.30;3.53;;;25.90;64.30;;;;;;5065190;28;20021;-78
2021/06/20 12:35:53;;;;;;;5.22;3.00;;;25.90;63.70;;;;;;5061664;28;20108;-78
2021/06/20 12:38:21;;;;;;;5.05;3.08;;;25.90;63.60;;;;;;5055584;28;20009;-77
2021/06/20 12:40:47;;;;;;;5.50;2.95;;;25.90;63.60;;;;;;5065893;28;20024;-78